Curtis, AR (71728)

11:07 PM CST on February 06, 2016 (GMT -0600)
Florence Mem AP, Arkadelphia, | | Change Station
CLOSE
Current Station
Airport
Location: Florence Mem AP, Arkadelphia,,
Elevation: 184 ft
Nearby Weather Stations

Elev 184 ft 34.10 °N, 93.07 °W | Updated 11 minutes ago

Clear
Clear
32 °F
Feels Like 32 °F
N
0
Wind Variable Wind from North

Today
High -- | Low -- °F
--% Chance of Precip.
Yesterday
High -- | Low -- °F
Precip. -- in
Pressure 30.37 in
Visibility 10.0 miles
Clouds Clear
Dew Point 30 °F
Humidity 92%
Rainfall 0.00 in
Snow Depth Not available.
7:05 AM 5:47 PM
Waning Crescent, 3% visible
METAR KADF 070456Z AUTO 00000KT 10SM CLR 00/M01 A3032 RMK AO2 T00001011 SLP282
Pressure 30.37 in
Visibility 10.0 miles
Clouds Clear
Dew Point 30 °F
Humidity 92%
Rainfall 0.00 in
Snow Depth Not available.
7:05 AM 5:47 PM
Waning Crescent, 3% visible
METAR KADF 070456Z AUTO 00000KT 10SM CLR 00/M01 A3032 RMK AO2 T00001011 SLP282

10-Day Weather Forecast

Almanac

Astronomy

Feb. 06, 2016 Rise Set
Actual Time
Civil Twilight
Nautical Twilight
Astronomical Twilight
Moon
Length of Visible Light
Length of Day
Tomorrow will be .
, % of the Moon is Illuminated

Today's Extremes

State Highs State Lows

Community

WunderPhotos

Upload Photos

1,891,157 photos uploaded!

WunderBlog® & News

Nearby

Air Quality

  Air Quality AQ Index Pollutant
Not available.

Snow Depth

Station Depth Elevation

Earthquake Activity

City Distance Mag. Time & Date
Minimum magnitude displayed is 2.5.

Coastal Water Temperatures

Place Temperature

Stations

Nearby Weather Stations

Station Location Temp. Windchill Dew Point Humidity Wind Precip. Elev Updated Type
                   

Watches & Warnings

There are currently no watches in effect.